sensor_id;sensor_type;location;lat;lon;timestamp;pressure;altitude;pressure_sealevel;temperature;humidity
36454;BME280;22478;51.740;-1.314;2023-04-01T00:01:06;98682.33;;;3.97;100.00
36454;BME280;22478;51.740;-1.314;2023-04-01T00:03:34;98681.82;;;4.35;100.00
36454;BME280;22478;51.740;-1.314;2023-04-01T00:06:01;98675.85;;;5.07;100.00
36454;BME280;22478;51.740;-1.314;2023-04-01T00:08:29;98685.66;;;3.12;100.00
36454;BME280;22478;51.740;-1.314;2023-04-01T00:10:56;98693.81;;;3.32;100.00
36454;BME280;22478;51.740;-1.314;2023-04-01T00:13:25;98692.70;;;4.08;100.00
36454;BME280;22478;51.740;-1.314;2023-04-01T00:15:53;98696.14;;;3.03;100.00
36454;BME280;22478;51.740;-1.314;2023-04-01T00:18:22;98697.26;;;2.99;100.00
36454;BME280;22478;51.740;-1.314;2023-04-01T00:20:51;98701.29;;;2.98;100.00
36454;BME280;22478;51.740;-1.314;2023-04-01T00:23:19;98701.02;;;4.53;100.00
36454;BME280;22478;51.740;-1.314;2023-04-01T00:25:47;98705.04;;;4.02;100.00
36454;BME280;22478;51.740;-1.314;2023-04-01T00:28:14;98710.67;;;2.54;100.00
36454;BME280;22478;51.740;-1.314;2023-04-01T00:30:41;98713.93;;;3.09;100.00
36454;BME280;22478;51.740;-1.314;2023-04-01T00:33:09;98714.87;;;3.61;100.00
36454;BME280;22478;51.740;-1.314;2023-04-01T00:35:36;98724.80;;;2.81;100.00
36454;BME280;22478;51.740;-1.314;2023-04-01T00:38:04;98728.47;;;2.28;100.00
36454;BME280;22478;51.740;-1.314;2023-04-01T00:40:36;98726.01;;;2.75;100.00
36454;BME280;22478;51.740;-1.314;2023-04-01T00:43:11;98733.68;;;3.33;100.00
36454;BME280;22478;51.740;-1.314;2023-04-01T00:45:40;98734.41;;;2.47;100.00
36454;BME280;22478;51.740;-1.314;2023-04-01T00:48:11;98732.87;;;2.83;100.00
36454;BME280;22478;51.740;-1.314;2023-04-01T00:50:44;98735.71;;;2.67;100.00
36454;BME280;22478;51.740;-1.314;2023-04-01T00:53:13;98738.18;;;3.29;100.00
36454;BME280;22478;51.740;-1.314;2023-04-01T00:55:45;98737.16;;;3.28;100.00
36454;BME280;22478;51.740;-1.314;2023-04-01T00:58:17;98738.19;;;2.82;100.00
36454;BME280;22478;51.740;-1.314;2023-04-01T01:00:46;98743.45;;;2.37;100.00
36454;BME280;22478;51.740;-1.314;2023-04-01T01:03:16;98737.53;;;2.37;100.00
36454;BME280;22478;51.740;-1.314;2023-04-01T01:05:57;98746.58;;;2.40;100.00
36454;BME280;22478;51.740;-1.314;2023-04-01T01:08:35;98738.55;;;3.39;100.00
36454;BME280;22478;51.740;-1.314;2023-04-01T01:11:05;98735.13;;;3.45;100.00
36454;BME280;22478;51.740;-1.314;2023-04-01T01:13:42;98732.33;;;3.18;100.00
36454;BME280;22478;51.740;-1.314;2023-04-01T01:16:15;98740.20;;;3.39;100.00
36454;BME280;22478;51.740;-1.314;2023-04-01T01:18:52;98744.50;;;2.44;100.00
36454;BME280;22478;51.740;-1.314;2023-04-01T01:21:33;98749.32;;;3.05;100.00
36454;BME280;22478;51.740;-1.314;2023-04-01T01:24:39;98740.51;;;4.38;100.00
36454;BME280;22478;51.740;-1.314;2023-04-01T01:27:10;98747.47;;;2.27;100.00
36454;BME280;22478;51.740;-1.314;2023-04-01T01:30:19;98744.51;;;3.82;100.00
36454;BME280;22478;51.740;-1.314;2023-04-01T01:33:30;98761.93;;;2.05;100.00
36454;BME280;22478;51.740;-1.314;2023-04-01T01:36:04;98754.74;;;3.85;100.00
36454;BME280;22478;51.740;-1.314;2023-04-01T01:38:34;98759.67;;;3.79;100.00
36454;BME280;22478;51.740;-1.314;2023-04-01T01:41:04;98760.44;;;2.62;100.00
36454;BME280;22478;51.740;-1.314;2023-04-01T01:43:35;98761.83;;;4.65;100.00
36454;BME280;22478;51.740;-1.314;2023-04-01T01:46:07;98764.89;;;3.98;100.00
36454;BME280;22478;51.740;-1.314;2023-04-01T01:48:37;98764.18;;;3.67;100.00
36454;BME280;22478;51.740;-1.314;2023-04-01T01:51:06;98779.86;;;2.12;100.00
36454;BME280;22478;51.740;-1.314;2023-04-01T01:53:33;98772.59;;;4.72;100.00
36454;BME280;22478;51.740;-1.314;2023-04-01T01:56:01;98773.51;;;3.43;100.00
36454;BME280;22478;51.740;-1.314;2023-04-01T01:58:30;98787.93;;;2.93;100.00
36454;BME280;22478;51.740;-1.314;2023-04-01T02:01:00;98780.45;;;3.82;100.00
36454;BME280;22478;51.740;-1.314;2023-04-01T02:03:30;98778.93;;;4.96;100.00
36454;BME280;22478;51.740;-1.314;2023-04-01T02:06:01;98784.34;;;3.91;100.00
36454;BME280;22478;51.740;-1.314;2023-04-01T02:08:35;98788.70;;;4.49;100.00
36454;BME280;22478;51.740;-1.314;2023-04-01T02:11:07;98790.01;;;3.45;100.00
36454;BME280;22478;51.740;-1.314;2023-04-01T02:13:38;98788.39;;;5.47;100.00
36454;BME280;22478;51.740;-1.314;2023-04-01T02:16:12;98792.51;;;5.42;100.00
36454;BME280;22478;51.740;-1.314;2023-04-01T02:18:42;98800.98;;;3.42;100.00
36454;BME280;22478;51.740;-1.314;2023-04-01T02:21:12;98802.70;;;4.75;100.00
36454;BME280;22478;51.740;-1.314;2023-04-01T02:23:40;98801.24;;;4.26;100.00
36454;BME280;22478;51.740;-1.314;2023-04-01T02:26:10;98804.24;;;4.64;100.00
36454;BME280;22478;51.740;-1.314;2023-04-01T02:28:38;98803.34;;;5.88;100.00
36454;BME280;22478;51.740;-1.314;2023-04-01T02:31:09;98803.73;;;6.67;100.00
36454;BME280;22478;51.740;-1.314;2023-04-01T02:33:38;98811.18;;;3.93;100.00
36454;BME280;22478;51.740;-1.314;2023-04-01T02:36:06;98812.09;;;5.76;100.00
36454;BME280;22478;51.740;-1.314;2023-04-01T02:38:37;98814.14;;;4.14;100.00
36454;BME280;22478;51.740;-1.314;2023-04-01T02:41:04;98829.31;;;2.47;100.00
36454;BME280;22478;51.740;-1.314;2023-04-01T02:43:32;98817.44;;;5.08;100.00
36454;BME280;22478;51.740;-1.314;2023-04-01T02:46:00;98812.13;;;5.61;100.00
36454;BME280;22478;51.740;-1.314;2023-04-01T02:48:27;98811.32;;;6.47;100.00
36454;BME280;22478;51.740;-1.314;2023-04-01T02:50:55;98812.69;;;6.78;100.00
36454;BME280;22478;51.740;-1.314;2023-04-01T02:53:22;98812.43;;;5.51;100.00
36454;BME280;22478;51.740;-1.314;2023-04-01T02:55:50;98825.96;;;3.53;100.00
36454;BME280;22478;51.740;-1.314;2023-04-01T02:58:17;98819.26;;;5.81;100.00
36454;BME280;22478;51.740;-1.314;2023-04-01T03:00:45;98816.82;;;6.30;100.00
36454;BME280;22478;51.740;-1.314;2023-04-01T03:03:11;98822.32;;;4.69;100.00
36454;BME280;22478;51.740;-1.314;2023-04-01T03:05:39;98832.41;;;3.46;100.00
36454;BME280;22478;51.740;-1.314;2023-04-01T03:08:07;98831.83;;;4.61;100.00
36454;BME280;22478;51.740;-1.314;2023-04-01T03:10:34;98834.95;;;3.68;100.00
36454;BME280;22478;51.740;-1.314;2023-04-01T03:13:01;98851.28;;;2.49;100.00
36454;BME280;22478;51.740;-1.314;2023-04-01T03:15:29;98850.54;;;3.44;100.00
36454;BME280;22478;51.740;-1.314;2023-04-01T03:17:56;98841.17;;;4.86;100.00
36454;BME280;22478;51.740;-1.314;2023-04-01T03:20:23;98854.38;;;3.59;100.00
36454;BME280;22478;51.740;-1.314;2023-04-01T03:22:50;98856.69;;;1.95;100.00
36454;BME280;22478;51.740;-1.314;2023-04-01T03:25:18;98863.47;;;1.60;100.00
36454;BME280;22478;51.740;-1.314;2023-04-01T03:27:45;98862.01;;;2.87;100.00
36454;BME280;22478;51.740;-1.314;2023-04-01T03:30:13;98864.35;;;3.57;100.00
36454;BME280;22478;51.740;-1.314;2023-04-01T03:32:40;98855.88;;;3.60;100.00
36454;BME280;22478;51.740;-1.314;2023-04-01T03:35:08;98861.24;;;4.44;100.00
36454;BME280;22478;51.740;-1.314;2023-04-01T03:37:36;98866.30;;;2.70;100.00
36454;BME280;22478;51.740;-1.314;2023-04-01T03:40:04;98870.00;;;2.32;100.00
36454;BME280;22478;51.740;-1.314;2023-04-01T03:42:32;98866.81;;;4.06;100.00
36454;BME280;22478;51.740;-1.314;2023-04-01T03:44:59;98872.06;;;2.56;100.00
36454;BME280;22478;51.740;-1.314;2023-04-01T03:47:26;98862.46;;;5.80;100.00
36454;BME280;22478;51.740;-1.314;2023-04-01T03:49:53;98865.40;;;4.44;100.00
36454;BME280;22478;51.740;-1.314;2023-04-01T03:52:21;98876.65;;;3.14;100.00
36454;BME280;22478;51.740;-1.314;2023-04-01T03:54:49;98877.75;;;2.46;100.00
36454;BME280;22478;51.740;-1.314;2023-04-01T03:57:16;98872.26;;;5.80;100.00
36454;BME280;22478;51.740;-1.314;2023-04-01T03:59:42;98873.30;;;5.01;100.00
36454;BME280;22478;51.740;-1.314;2023-04-01T04:02:09;98875.10;;;5.65;100.00
36454;BME280;22478;51.740;-1.314;2023-04-01T04:04:37;98880.34;;;4.61;100.00
36454;BME280;22478;51.740;-1.314;2023-04-01T04:07:04;98896.93;;;2.57;100.00
36454;BME280;22478;51.740;-1.314;2023-04-01T04:09:31;98901.26;;;2.08;100.00
36454;BME280;22478;51.740;-1.314;2023-04-01T04:11:58;98903.44;;;2.71;100.00
36454;BME280;22478;51.740;-1.314;2023-04-01T04:14:26;98901.39;;;3.09;100.00
36454;BME280;22478;51.740;-1.314;2023-04-01T04:16:54;98897.01;;;4.78;100.00
36454;BME280;22478;51.740;-1.314;2023-04-01T04:19:21;98895.03;;;4.01;100.00
36454;BME280;22478;51.740;-1.314;2023-04-01T04:21:49;98900.94;;;5.12;100.00
36454;BME280;22478;51.740;-1.314;2023-04-01T04:24:16;98898.38;;;6.32;100.00
36454;BME280;22478;51.740;-1.314;2023-04-01T04:26:43;98904.31;;;4.74;100.00
36454;BME280;22478;51.740;-1.314;2023-04-01T04:29:10;98900.93;;;6.25;100.00
36454;BME280;22478;51.740;-1.314;2023-04-01T04:31:37;98903.78;;;6.11;100.00
36454;BME280;22478;51.740;-1.314;2023-04-01T04:34:04;98920.00;;;2.35;100.00
36454;BME280;22478;51.740;-1.314;2023-04-01T04:36:32;98911.39;;;5.20;100.00
36454;BME280;22478;51.740;-1.314;2023-04-01T04:38:59;98922.94;;;2.99;100.00
36454;BME280;22478;51.740;-1.314;2023-04-01T04:41:26;98922.86;;;4.65;100.00
36454;BME280;22478;51.740;-1.314;2023-04-01T04:43:55;98928.66;;;1.44;100.00
36454;BME280;22478;51.740;-1.314;2023-04-01T04:46:23;98922.51;;;4.65;100.00
36454;BME280;22478;51.740;-1.314;2023-04-01T04:48:51;98922.68;;;5.39;100.00
36454;BME280;22478;51.740;-1.314;2023-04-01T04:51:19;98925.55;;;4.83;100.00
36454;BME280;22478;51.740;-1.314;2023-04-01T04:53:47;98941.95;;;2.53;100.00
36454;BME280;22478;51.740;-1.314;2023-04-01T04:56:17;98938.85;;;2.38;100.00
36454;BME280;22478;51.740;-1.314;2023-04-01T04:58:46;98937.23;;;4.80;100.00
36454;BME280;22478;51.740;-1.314;2023-04-01T05:01:15;98937.24;;;4.86;100.00
36454;BME280;22478;51.740;-1.314;2023-04-01T05:03:43;98940.93;;;4.43;100.00
36454;BME280;22478;51.740;-1.314;2023-04-01T05:06:13;98955.07;;;2.50;100.00
36454;BME280;22478;51.740;-1.314;2023-04-01T05:08:41;98956.25;;;3.77;100.00
36454;BME280;22478;51.740;-1.314;2023-04-01T05:11:10;98947.08;;;5.77;100.00
36454;BME280;22478;51.740;-1.314;2023-04-01T05:13:39;98958.74;;;4.27;100.00
36454;BME280;22478;51.740;-1.314;2023-04-01T05:16:08;98956.62;;;5.47;100.00
36454;BME280;22478;51.740;-1.314;2023-04-01T05:18:36;98965.98;;;4.33;100.00
36454;BME280;22478;51.740;-1.314;2023-04-01T05:21:03;98969.08;;;4.74;100.00
36454;BME280;22478;51.740;-1.314;2023-04-01T05:23:31;98970.60;;;2.06;100.00
36454;BME280;22478;51.740;-1.314;2023-04-01T05:26:03;98974.52;;;3.39;100.00
36454;BME280;22478;51.740;-1.314;2023-04-01T05:28:30;98975.80;;;3.12;100.00
36454;BME280;22478;51.740;-1.314;2023-04-01T05:30:59;98990.27;;;1.37;100.00
36454;BME280;22478;51.740;-1.314;2023-04-01T05:33:27;98987.20;;;3.74;100.00
36454;BME280;22478;51.740;-1.314;2023-04-01T05:35:55;99004.38;;;1.40;100.00
36454;BME280;22478;51.740;-1.314;2023-04-01T05:38:23;98993.77;;;3.31;100.00
36454;BME280;22478;51.740;-1.314;2023-04-01T05:40:50;98994.24;;;2.76;100.00
36454;BME280;22478;51.740;-1.314;2023-04-01T05:43:17;98996.48;;;2.46;100.00
36454;BME280;22478;51.740;-1.314;2023-04-01T05:45:44;99001.13;;;3.11;100.00
36454;BME280;22478;51.740;-1.314;2023-04-01T05:48:11;99002.32;;;2.90;100.00
36454;BME280;22478;51.740;-1.314;2023-04-01T05:50:40;99008.56;;;2.95;100.00
36454;BME280;22478;51.740;-1.314;2023-04-01T05:53:07;99017.08;;;0.94;100.00
36454;BME280;22478;51.740;-1.314;2023-04-01T05:55:35;99021.06;;;1.85;100.00
36454;BME280;22478;51.740;-1.314;2023-04-01T05:58:02;99018.39;;;3.12;100.00
36454;BME280;22478;51.740;-1.314;2023-04-01T06:00:29;99021.66;;;1.57;100.00
36454;BME280;22478;51.740;-1.314;2023-04-01T06:02:58;99023.49;;;3.00;100.00
36454;BME280;22478;51.740;-1.314;2023-04-01T06:05:28;99020.21;;;3.59;100.00
36454;BME280;22478;51.740;-1.314;2023-04-01T06:07:59;99023.84;;;3.60;100.00
36454;BME280;22478;51.740;-1.314;2023-04-01T06:10:38;99033.97;;;1.98;100.00
36454;BME280;22478;51.740;-1.314;2023-04-01T06:13:13;99031.30;;;3.60;100.00
36454;BME280;22478;51.740;-1.314;2023-04-01T06:15:53;99025.98;;;5.04;100.00
36454;BME280;22478;51.740;-1.314;2023-04-01T06:18:43;99031.38;;;2.74;100.00
36454;BME280;22478;51.740;-1.314;2023-04-01T06:21:27;99038.00;;;2.48;100.00
36454;BME280;22478;51.740;-1.314;2023-04-01T06:24:08;99045.94;;;1.93;100.00
36454;BME280;22478;51.740;-1.314;2023-04-01T06:26:48;99043.10;;;3.39;100.00
36454;BME280;22478;51.740;-1.314;2023-04-01T06:29:29;99054.03;;;0.86;100.00
36454;BME280;22478;51.740;-1.314;2023-04-01T06:32:14;99053.05;;;1.78;100.00
36454;BME280;22478;51.740;-1.314;2023-04-01T06:35:04;99049.42;;;4.13;100.00
36454;BME280;22478;51.740;-1.314;2023-04-01T06:37:51;99052.93;;;3.58;100.00
36454;BME280;22478;51.740;-1.314;2023-04-01T06:40:49;99063.29;;;1.42;100.00
36454;BME280;22478;51.740;-1.314;2023-04-01T06:43:27;99062.20;;;2.98;100.00
36454;BME280;22478;51.740;-1.314;2023-04-01T06:46:04;99064.22;;;2.82;100.00
36454;BME280;22478;51.740;-1.314;2023-04-01T06:48:58;99063.92;;;3.12;100.00
36454;BME280;22478;51.740;-1.314;2023-04-01T06:51:34;99070.28;;;3.46;100.00
36454;BME280;22478;51.740;-1.314;2023-04-01T06:54:10;99070.75;;;3.64;100.00
36454;BME280;22478;51.740;-1.314;2023-04-01T06:56:42;99078.13;;;3.01;100.00
36454;BME280;22478;51.740;-1.314;2023-04-01T06:59:15;99074.81;;;4.52;100.00
36454;BME280;22478;51.740;-1.314;2023-04-01T07:01:46;99076.35;;;3.48;100.00
36454;BME280;22478;51.740;-1.314;2023-04-01T07:04:19;99085.01;;;2.88;100.00
36454;BME280;22478;51.740;-1.314;2023-04-01T07:06:51;99084.84;;;3.03;100.00
36454;BME280;22478;51.740;-1.314;2023-04-01T07:09:22;99093.45;;;1.11;100.00
36454;BME280;22478;51.740;-1.314;2023-04-01T07:11:53;99097.58;;;2.19;100.00
36454;BME280;22478;51.740;-1.314;2023-04-01T07:14:27;99099.66;;;3.68;100.00
36454;BME280;22478;51.740;-1.314;2023-04-01T07:17:02;99101.54;;;4.78;100.00
36454;BME280;22478;51.740;-1.314;2023-04-01T07:19:33;99101.97;;;3.13;100.00
36454;BME280;22478;51.740;-1.314;2023-04-01T07:22:05;99105.83;;;3.77;100.00
36454;BME280;22478;51.740;-1.314;2023-04-01T07:24:36;99111.74;;;5.42;100.00
36454;BME280;22478;51.740;-1.314;2023-04-01T07:27:08;99123.43;;;1.66;100.00
36454;BME280;22478;51.740;-1.314;2023-04-01T07:29:36;99113.21;;;4.48;100.00
36454;BME280;22478;51.740;-1.314;2023-04-01T07:32:12;99113.94;;;4.09;100.00
36454;BME280;22478;51.740;-1.314;2023-04-01T07:34:50;99117.28;;;4.30;100.00
36454;BME280;22478;51.740;-1.314;2023-04-01T07:37:28;99123.55;;;2.20;100.00
36454;BME280;22478;51.740;-1.314;2023-04-01T07:40:04;99119.56;;;5.23;100.00
36454;BME280;22478;51.740;-1.314;2023-04-01T07:42:45;99122.64;;;4.65;100.00
36454;BME280;22478;51.740;-1.314;2023-04-01T07:45:24;99121.01;;;6.04;100.00
36454;BME280;22478;51.740;-1.314;2023-04-01T07:48:04;99133.12;;;4.07;100.00
36454;BME280;22478;51.740;-1.314;2023-04-01T07:50:37;99132.41;;;4.16;100.00
36454;BME280;22478;51.740;-1.314;2023-04-01T07:53:13;99137.67;;;6.09;100.00
36454;BME280;22478;51.740;-1.314;2023-04-01T07:55:48;99145.50;;;5.10;100.00
36454;BME280;22478;51.740;-1.314;2023-04-01T07:58:24;99156.37;;;2.12;100.00
36454;BME280;22478;51.740;-1.314;2023-04-01T08:01:01;99155.66;;;3.72;100.00
36454;BME280;22478;51.740;-1.314;2023-04-01T08:03:39;99176.75;;;-0.22;100.00
36454;BME280;22478;51.740;-1.314;2023-04-01T08:06:14;99168.88;;;2.85;100.00
36454;BME280;22478;51.740;-1.314;2023-04-01T08:08:52;99173.70;;;2.24;100.00
36454;BME280;22478;51.740;-1.314;2023-04-01T08:11:33;99176.47;;;2.45;100.00
36454;BME280;22478;51.740;-1.314;2023-04-01T08:14:08;99192.23;;;0.99;100.00
36454;BME280;22478;51.740;-1.314;2023-04-01T08:16:46;99205.49;;;-0.36;100.00
36454;BME280;22478;51.740;-1.314;2023-04-01T08:19:28;99196.57;;;2.67;100.00
36454;BME280;22478;51.740;-1.314;2023-04-01T08:22:00;99196.71;;;3.50;100.00
36454;BME280;22478;51.740;-1.314;2023-04-01T08:24:33;99201.79;;;3.83;100.00
36454;BME280;22478;51.740;-1.314;2023-04-01T08:27:06;99205.69;;;2.91;100.00
36454;BME280;22478;51.740;-1.314;2023-04-01T08:29:41;99214.63;;;1.56;100.00
36454;BME280;22478;51.740;-1.314;2023-04-01T08:32:12;99211.17;;;2.62;100.00
36454;BME280;22478;51.740;-1.314;2023-04-01T08:34:47;99214.22;;;4.50;100.00
36454;BME280;22478;51.740;-1.314;2023-04-01T08:37:21;99233.39;;;1.45;100.00
36454;BME280;22478;51.740;-1.314;2023-04-01T08:39:52;99227.33;;;2.13;100.00
36454;BME280;22478;51.740;-1.314;2023-04-01T08:42:36;99230.56;;;2.45;100.00
36454;BME280;22478;51.740;-1.314;2023-04-01T08:45:15;99231.79;;;2.38;100.00
36454;BME280;22478;51.740;-1.314;2023-04-01T08:47:59;99248.70;;;0.68;100.00
36454;BME280;22478;51.740;-1.314;2023-04-01T08:50:43;99247.46;;;1.72;100.00
36454;BME280;22478;51.740;-1.314;2023-04-01T08:53:21;99241.25;;;4.36;100.00
36454;BME280;22478;51.740;-1.314;2023-04-01T08:56:06;99250.03;;;2.91;100.00
36454;BME280;22478;51.740;-1.314;2023-04-01T08:58:55;99249.27;;;4.50;100.00
36454;BME280;22478;51.740;-1.314;2023-04-01T09:01:41;99257.20;;;3.20;100.00
36454;BME280;22478;51.740;-1.314;2023-04-01T09:04:25;99261.14;;;2.43;100.00
36454;BME280;22478;51.740;-1.314;2023-04-01T09:07:06;99263.44;;;2.51;100.00
36454;BME280;22478;51.740;-1.314;2023-04-01T09:09:52;99263.10;;;3.79;100.00
36454;BME280;22478;51.740;-1.314;2023-04-01T09:12:35;99268.17;;;2.66;100.00
36454;BME280;22478;51.740;-1.314;2023-04-01T09:15:26;99264.66;;;3.13;100.00
36454;BME280;22478;51.740;-1.314;2023-04-01T09:18:12;99264.48;;;4.40;100.00
36454;BME280;22478;51.740;-1.314;2023-04-01T09:20:48;99270.58;;;2.28;100.00
36454;BME280;22478;51.740;-1.314;2023-04-01T09:23:32;99279.00;;;1.76;100.00
36454;BME280;22478;51.740;-1.314;2023-04-01T09:26:16;99283.12;;;2.00;100.00
36454;BME280;22478;51.740;-1.314;2023-04-01T09:28:57;99296.31;;;-0.53;100.00
36454;BME280;22478;51.740;-1.314;2023-04-01T09:31:42;99291.70;;;1.80;100.00
36454;BME280;22478;51.740;-1.314;2023-04-01T09:34:31;99298.09;;;0.61;100.00
36454;BME280;22478;51.740;-1.314;2023-04-01T09:37:18;99301.75;;;1.18;100.00
36454;BME280;22478;51.740;-1.314;2023-04-01T09:39:57;99288.24;;;3.91;100.00
36454;BME280;22478;51.740;-1.314;2023-04-01T09:42:42;99283.45;;;4.12;100.00
36454;BME280;22478;51.740;-1.314;2023-04-01T09:45:21;99293.75;;;3.18;100.00
36454;BME280;22478;51.740;-1.314;2023-04-01T09:48:05;99298.86;;;3.04;100.00
36454;BME280;22478;51.740;-1.314;2023-04-01T09:50:42;99297.89;;;3.66;100.00
36454;BME280;22478;51.740;-1.314;2023-04-01T09:53:20;99297.48;;;2.80;100.00
36454;BME280;22478;51.740;-1.314;2023-04-01T10:00:50;99323.81;;;0.78;100.00
36454;BME280;22478;51.740;-1.314;2023-04-01T10:03:48;99327.11;;;1.86;100.00
36454;BME280;22478;51.740;-1.314;2023-04-01T10:11:29;99341.85;;;1.80;100.00
36454;BME280;22478;51.740;-1.314;2023-04-01T10:14:17;99341.50;;;2.75;100.00
36454;BME280;22478;51.740;-1.314;2023-04-01T10:17:00;99341.94;;;2.60;100.00
36454;BME280;22478;51.740;-1.314;2023-04-01T10:20:05;99357.67;;;1.14;100.00
36454;BME280;22478;51.740;-1.314;2023-04-01T10:22:50;99368.32;;;0.39;100.00
36454;BME280;22478;51.740;-1.314;2023-04-01T10:26:42;99370.12;;;1.68;100.00
36454;BME280;22478;51.740;-1.314;2023-04-01T10:30:36;99372.51;;;1.69;100.00
36454;BME280;22478;51.740;-1.314;2023-04-01T10:33:23;99374.00;;;1.44;100.00
36454;BME280;22478;51.740;-1.314;2023-04-01T10:36:18;99377.94;;;1.83;100.00
36454;BME280;22478;51.740;-1.314;2023-04-01T10:39:07;99388.90;;;0.66;100.00
36454;BME280;22478;51.740;-1.314;2023-04-01T10:42:23;99387.12;;;2.51;100.00
36454;BME280;22478;51.740;-1.314;2023-04-01T10:47:25;99393.30;;;0.56;100.00
36454;BME280;22478;51.740;-1.314;2023-04-01T10:50:18;99396.06;;;1.99;100.00
36454;BME280;22478;51.740;-1.314;2023-04-01T10:53:10;99394.90;;;2.59;100.00
36454;BME280;22478;51.740;-1.314;2023-04-01T10:56:00;99392.35;;;5.35;100.00
36454;BME280;22478;51.740;-1.314;2023-04-01T10:59:00;99389.52;;;2.95;100.00
36454;BME280;22478;51.740;-1.314;2023-04-01T11:01:59;99398.73;;;3.68;100.00
36454;BME280;22478;51.740;-1.314;2023-04-01T11:04:56;99409.79;;;1.40;100.00
36454;BME280;22478;51.740;-1.314;2023-04-01T11:07:53;99401.20;;;2.79;100.00
36454;BME280;22478;51.740;-1.314;2023-04-01T11:10:54;99409.19;;;3.70;100.00
36454;BME280;22478;51.740;-1.314;2023-04-01T11:13:50;99410.66;;;4.59;100.00
36454;BME280;22478;51.740;-1.314;2023-04-01T11:16:43;99425.82;;;1.23;100.00
36454;BME280;22478;51.740;-1.314;2023-04-01T11:19:35;99434.73;;;0.72;100.00
36454;BME280;22478;51.740;-1.314;2023-04-01T11:22:24;99434.93;;;1.04;100.00
36454;BME280;22478;51.740;-1.314;2023-04-01T11:25:24;99436.88;;;1.94;100.00
36454;BME280;22478;51.740;-1.314;2023-04-01T11:28:08;99441.28;;;1.75;100.00
36454;BME280;22478;51.740;-1.314;2023-04-01T11:30:53;99441.36;;;2.65;100.00
36454;BME280;22478;51.740;-1.314;2023-04-01T11:33:28;99446.43;;;1.93;100.00
36454;BME280;22478;51.740;-1.314;2023-04-01T11:36:20;99453.52;;;1.68;100.00
36454;BME280;22478;51.740;-1.314;2023-04-01T11:39:00;99452.84;;;3.10;100.00
36454;BME280;22478;51.740;-1.314;2023-04-01T11:41:37;99461.27;;;1.57;100.00
36454;BME280;22478;51.740;-1.314;2023-04-01T11:44:17;99462.73;;;3.29;100.00
36454;BME280;22478;51.740;-1.314;2023-04-01T11:46:54;99470.18;;;1.61;100.00
36454;BME280;22478;51.740;-1.314;2023-04-01T11:49:36;99475.05;;;3.28;100.00
36454;BME280;22478;51.740;-1.314;2023-04-01T11:52:18;99470.70;;;4.33;100.00
36454;BME280;22478;51.740;-1.314;2023-04-01T11:55:06;99484.13;;;3.89;100.00
36454;BME280;22478;51.740;-1.314;2023-04-01T11:57:51;99489.47;;;3.32;100.00
36454;BME280;22478;51.740;-1.314;2023-04-01T12:00:35;99495.41;;;2.27;100.00
36454;BME280;22478;51.740;-1.314;2023-04-01T12:03:21;99499.95;;;2.20;100.00
36454;BME280;22478;51.740;-1.314;2023-04-01T12:06:02;99505.76;;;2.39;100.00
36454;BME280;22478;51.740;-1.314;2023-04-01T12:08:41;99509.26;;;3.08;100.00
36454;BME280;22478;51.740;-1.314;2023-04-01T12:11:17;99514.69;;;3.25;100.00
36454;BME280;22478;51.740;-1.314;2023-04-01T12:13:53;99516.26;;;3.27;100.00
36454;BME280;22478;51.740;-1.314;2023-04-01T12:16:36;99520.34;;;2.22;100.00
36454;BME280;22478;51.740;-1.314;2023-04-01T12:19:14;99521.65;;;2.01;100.00
36454;BME280;22478;51.740;-1.314;2023-04-01T12:21:49;99527.88;;;3.54;100.00
36454;BME280;22478;51.740;-1.314;2023-04-01T12:24:44;99535.84;;;2.13;100.00
36454;BME280;22478;51.740;-1.314;2023-04-01T12:27:23;99540.96;;;1.57;100.00
36454;BME280;22478;51.740;-1.314;2023-04-01T12:32:16;99544.19;;;2.96;100.00
36454;BME280;22478;51.740;-1.314;2023-04-01T12:34:58;99544.54;;;3.58;100.00
36454;BME280;22478;51.740;-1.314;2023-04-01T12:37:36;99549.89;;;2.94;100.00
36454;BME280;22478;51.740;-1.314;2023-04-01T12:40:24;99551.35;;;1.94;100.00
36454;BME280;22478;51.740;-1.314;2023-04-01T12:43:06;99552.24;;;2.12;100.00
36454;BME280;22478;51.740;-1.314;2023-04-01T12:45:43;99556.78;;;3.06;100.00
36454;BME280;22478;51.740;-1.314;2023-04-01T12:48:31;99565.83;;;1.82;100.00
36454;BME280;22478;51.740;-1.314;2023-04-01T12:51:20;99578.95;;;1.53;100.00
36454;BME280;22478;51.740;-1.314;2023-04-01T12:56:27;99585.72;;;1.57;100.00
36454;BME280;22478;51.740;-1.314;2023-04-01T12:59:12;99585.53;;;2.54;100.00
36454;BME280;22478;51.740;-1.314;2023-04-01T13:02:00;99585.40;;;2.64;100.00
36454;BME280;22478;51.740;-1.314;2023-04-01T13:04:38;99586.91;;;2.64;100.00
36454;BME280;22478;51.740;-1.314;2023-04-01T13:07:17;99594.59;;;3.28;100.00
36454;BME280;22478;51.740;-1.314;2023-04-01T13:09:55;99590.71;;;3.82;100.00
36454;BME280;22478;51.740;-1.314;2023-04-01T13:12:39;99586.57;;;4.00;100.00
36454;BME280;22478;51.740;-1.314;2023-04-01T13:15:16;99585.77;;;3.96;100.00
36454;BME280;22478;51.740;-1.314;2023-04-01T13:17:52;99587.35;;;4.60;100.00
36454;BME280;22478;51.740;-1.314;2023-04-01T13:20:31;99591.08;;;3.36;100.00
36454;BME280;22478;51.740;-1.314;2023-04-01T13:23:09;99590.75;;;3.45;100.00
36454;BME280;22478;51.740;-1.314;2023-04-01T13:25:47;99587.59;;;5.02;100.00
36454;BME280;22478;51.740;-1.314;2023-04-01T13:28:23;99595.50;;;4.43;100.00
36454;BME280;22478;51.740;-1.314;2023-04-01T13:30:57;99593.44;;;4.99;100.00
36454;BME280;22478;51.740;-1.314;2023-04-01T13:33:32;99597.64;;;6.53;100.00
36454;BME280;22478;51.740;-1.314;2023-04-01T13:36:14;99601.89;;;5.38;100.00
36454;BME280;22478;51.740;-1.314;2023-04-01T13:38:56;99610.60;;;4.89;100.00
36454;BME280;22478;51.740;-1.314;2023-04-01T13:41:40;99604.52;;;6.46;100.00
36454;BME280;22478;51.740;-1.314;2023-04-01T13:44:13;99616.73;;;3.54;100.00
36454;BME280;22478;51.740;-1.314;2023-04-01T13:46:52;99619.87;;;4.63;100.00
36454;BME280;22478;51.740;-1.314;2023-04-01T13:49:31;99614.62;;;5.28;100.00
36454;BME280;22478;51.740;-1.314;2023-04-01T13:52:13;99630.19;;;1.98;100.00
36454;BME280;22478;51.740;-1.314;2023-04-01T13:54:55;99633.79;;;3.96;100.00